createdAt,value
2022-11-19T00:01:12.441Z,9.80
2022-11-19T00:03:40.404Z,10.00
2022-11-19T00:06:10.883Z,9.90
2022-11-19T00:08:38.693Z,10.00
2022-11-19T00:11:10.785Z,10.00
2022-11-19T00:13:39.381Z,10.00
2022-11-19T00:16:11.384Z,10.00
2022-11-19T00:18:39.481Z,10.00
2022-11-19T00:21:10.869Z,10.20
2022-11-19T00:23:38.950Z,10.20
2022-11-19T00:26:07.791Z,10.30
2022-11-19T00:28:35.626Z,10.40
2022-11-19T00:31:10.469Z,10.30
2022-11-19T00:33:38.659Z,10.30
2022-11-19T00:36:07.292Z,10.30
2022-11-19T00:38:35.285Z,10.30
2022-11-19T00:41:02.919Z,10.30
2022-11-19T00:43:49.009Z,10.20
2022-11-19T00:46:18.476Z,10.20
2022-11-19T00:48:46.432Z,10.30
2022-11-19T00:51:13.947Z,10.30
2022-11-19T00:53:41.460Z,10.30
2022-11-19T00:56:10.186Z,10.20
2022-11-19T00:58:38.414Z,10.20
2022-11-19T01:01:06.318Z,10.10
2022-11-19T01:03:34.571Z,10.10
2022-11-19T01:06:02.390Z,10.10
2022-11-19T01:08:29.907Z,10.00
2022-11-19T01:11:03.939Z,10.00
2022-11-19T01:13:37.542Z,9.90
2022-11-19T01:16:12.557Z,9.90
2022-11-19T01:18:40.909Z,9.90
2022-11-19T01:21:09.499Z,9.90
2022-11-19T01:23:37.487Z,9.90
2022-11-19T01:26:05.112Z,9.90
2022-11-19T01:28:32.559Z,9.90
2022-11-19T01:31:00.141Z,9.90
2022-11-19T01:33:28.321Z,9.90
2022-11-19T01:35:56.890Z,9.80
2022-11-19T01:38:24.388Z,9.90
2022-11-19T01:40:52.296Z,10.00
2022-11-19T01:43:19.770Z,10.00
2022-11-19T01:45:49.246Z,10.00
2022-11-19T01:48:31.254Z,10.00
2022-11-19T01:51:04.013Z,9.80
2022-11-19T01:53:34.233Z,9.80
2022-11-19T01:56:04.347Z,9.70
2022-11-19T01:58:34.457Z,9.70
2022-11-19T02:01:02.576Z,9.70
2022-11-19T02:03:31.475Z,9.70
2022-11-19T02:06:00.746Z,9.70
2022-11-19T02:08:36.669Z,9.60
2022-11-19T02:11:10.391Z,9.70
2022-11-19T02:13:43.147Z,9.70
2022-11-19T02:16:19.568Z,9.60
2022-11-19T02:18:47.028Z,9.60
2022-11-19T02:21:23.494Z,9.60
2022-11-19T02:24:14.304Z,9.50
2022-11-19T02:26:47.817Z,9.50
2022-11-19T02:29:18.763Z,9.50
2022-11-19T02:31:57.435Z,9.50
2022-11-19T02:34:30.769Z,9.60
2022-11-19T02:37:00.757Z,9.70
2022-11-19T02:39:33.407Z,9.60
2022-11-19T02:42:04.820Z,9.50
2022-11-19T02:44:59.442Z,9.60
2022-11-19T02:47:27.021Z,9.40
2022-11-19T02:49:57.141Z,9.40
2022-11-19T02:52:24.728Z,9.50
2022-11-19T02:54:52.227Z,9.40
2022-11-19T02:57:19.800Z,9.40
2022-11-19T03:00:13.164Z,9.40
2022-11-19T03:03:01.318Z,9.30
2022-11-19T03:05:31.830Z,9.40
2022-11-19T03:07:59.832Z,9.40
2022-11-19T03:10:36.805Z,9.20
2022-11-19T03:13:24.241Z,9.10
2022-11-19T03:16:10.431Z,9.10
2022-11-19T03:18:43.957Z,9.10
2022-11-19T03:21:30.934Z,9.10
2022-11-19T03:24:00.868Z,9.10
2022-11-19T03:26:37.193Z,9.20
2022-11-19T03:29:08.126Z,9.30
2022-11-19T03:31:37.023Z,9.20
2022-11-19T03:34:08.455Z,9.00
2022-11-19T03:36:37.424Z,9.10
2022-11-19T03:39:07.765Z,9.00
2022-11-19T03:41:36.376Z,8.90
2022-11-19T03:44:07.821Z,8.90
2022-11-19T03:46:36.002Z,8.90
2022-11-19T03:49:03.940Z,9.00
2022-11-19T03:52:07.208Z,8.90
2022-11-19T03:54:34.763Z,8.90
2022-11-19T03:57:03.682Z,8.90
2022-11-19T03:59:31.397Z,8.80
2022-11-19T04:02:01.056Z,8.90
2022-11-19T04:04:37.804Z,9.00
2022-11-19T04:07:06.609Z,9.00
2022-11-19T04:09:34.856Z,9.10
2022-11-19T04:12:02.342Z,9.20
2022-11-19T04:14:29.916Z,9.20
2022-11-19T04:16:57.455Z,9.20
2022-11-19T04:19:25.294Z,9.00
2022-11-19T04:21:52.833Z,9.00
2022-11-19T04:24:20.459Z,9.00
2022-11-19T04:26:47.947Z,8.80
2022-11-19T04:29:15.521Z,8.80
2022-11-19T04:31:43.133Z,8.90
2022-11-19T04:34:10.799Z,8.90
2022-11-19T04:36:40.383Z,8.90
2022-11-19T04:39:12.546Z,8.90
2022-11-19T04:41:40.714Z,8.90
2022-11-19T04:44:08.211Z,8.90
2022-11-19T04:46:36.359Z,8.80
2022-11-19T04:49:03.989Z,8.60
2022-11-19T04:51:31.556Z,8.60
2022-11-19T04:53:59.013Z,8.60
2022-11-19T04:56:26.483Z,8.50
2022-11-19T04:58:54.077Z,8.50
2022-11-19T05:01:21.830Z,8.50
2022-11-19T05:03:49.420Z,8.40
2022-11-19T05:06:17.169Z,8.30
2022-11-19T05:08:44.806Z,8.30
2022-11-19T05:11:12.328Z,8.30
2022-11-19T05:13:39.756Z,8.20
2022-11-19T05:16:07.257Z,8.30
2022-11-19T05:18:34.810Z,8.40
2022-11-19T05:21:02.417Z,8.60
2022-11-19T05:23:29.936Z,8.70
2022-11-19T05:25:57.602Z,8.70
2022-11-19T05:28:37.931Z,8.50
2022-11-19T05:31:06.654Z,8.40
2022-11-19T05:33:34.764Z,8.40
2022-11-19T05:36:02.678Z,8.20
2022-11-19T05:38:30.221Z,8.10
2022-11-19T05:40:57.735Z,7.90
2022-11-19T05:43:25.341Z,7.80
2022-11-19T05:45:52.796Z,7.90
2022-11-19T05:48:20.264Z,8.00
2022-11-19T05:50:47.914Z,8.10
2022-11-19T05:53:15.431Z,8.00
2022-11-19T05:55:42.850Z,8.00
2022-11-19T05:58:10.656Z,8.10
2022-11-19T06:00:38.325Z,8.10
2022-11-19T06:03:06.199Z,8.10
2022-11-19T06:05:39.864Z,8.30
2022-11-19T06:08:08.052Z,8.20
2022-11-19T06:10:35.537Z,8.20
2022-11-19T06:13:03.393Z,8.40
2022-11-19T06:15:30.760Z,8.50
2022-11-19T06:17:58.353Z,8.50
2022-11-19T06:20:26.043Z,8.50
2022-11-19T06:22:53.654Z,8.40
2022-11-19T06:25:21.208Z,8.30
2022-11-19T06:27:48.731Z,8.50
2022-11-19T06:30:16.437Z,8.60
2022-11-19T06:32:43.997Z,8.50
2022-11-19T06:35:14.084Z,8.40
2022-11-19T06:37:41.908Z,8.50
2022-11-19T06:40:09.991Z,8.50
2022-11-19T06:42:37.583Z,8.60
2022-11-19T06:45:10.254Z,8.60
2022-11-19T06:47:38.832Z,8.50
2022-11-19T06:50:07.273Z,8.50
2022-11-19T06:52:35.190Z,8.50
2022-11-19T06:55:02.773Z,8.60
2022-11-19T06:57:30.427Z,8.70
2022-11-19T06:59:58.013Z,8.90
2022-11-19T07:02:25.524Z,9.00
2022-11-19T07:04:53.000Z,9.10
2022-11-19T07:07:21.213Z,9.10
2022-11-19T07:09:48.785Z,9.10
2022-11-19T07:12:16.290Z,9.00
2022-11-19T07:14:43.770Z,9.00
2022-11-19T07:17:11.268Z,9.00
2022-11-19T07:19:38.797Z,9.00
2022-11-19T07:22:06.462Z,9.10
2022-11-19T07:24:33.947Z,9.20
2022-11-19T07:27:01.411Z,9.20
2022-11-19T07:29:28.952Z,9.10
2022-11-19T07:31:56.438Z,9.00
2022-11-19T07:34:23.915Z,9.00
2022-11-19T07:36:51.537Z,9.00
2022-11-19T07:39:19.289Z,9.00
2022-11-19T07:42:05.935Z,8.90
2022-11-19T07:44:34.144Z,9.00
2022-11-19T07:47:01.688Z,9.10
2022-11-19T07:49:29.297Z,9.20
2022-11-19T07:51:56.975Z,9.20
2022-11-19T07:54:24.472Z,9.30
2022-11-19T07:56:51.915Z,9.50
2022-11-19T07:59:19.810Z,9.60
2022-11-19T08:01:47.497Z,9.60
2022-11-19T08:04:15.189Z,9.60
2022-11-19T08:06:42.723Z,9.60
2022-11-19T08:09:10.332Z,9.60
2022-11-19T08:11:37.805Z,9.50
2022-11-19T08:14:05.415Z,9.50
2022-11-19T08:16:52.114Z,9.60
2022-11-19T08:19:20.501Z,9.80
2022-11-19T08:21:48.353Z,9.90
2022-11-19T08:24:18.308Z,9.90
2022-11-19T08:26:46.327Z,9.90
2022-11-19T08:29:16.444Z,9.90
2022-11-19T08:31:45.148Z,9.70
2022-11-19T08:34:12.636Z,9.70
2022-11-19T08:36:40.293Z,9.80
2022-11-19T08:39:07.864Z,9.90
2022-11-19T08:41:53.967Z,9.80
2022-11-19T08:44:22.019Z,9.90
2022-11-19T08:46:50.769Z,9.90
2022-11-19T08:49:18.358Z,10.00
2022-11-19T08:51:45.969Z,10.00
2022-11-19T08:54:13.567Z,10.00
2022-11-19T08:56:41.088Z,10.00
2022-11-19T08:59:08.797Z,10.10
2022-11-19T09:01:36.423Z,10.20
2022-11-19T09:04:04.025Z,10.30
2022-11-19T09:06:33.792Z,10.60
2022-11-19T09:09:01.581Z,10.80
2022-11-19T09:11:29.151Z,10.90
2022-11-19T09:13:57.703Z,10.70
2022-11-19T09:16:25.200Z,10.70
2022-11-19T09:18:52.909Z,10.80
2022-11-19T09:21:20.621Z,10.80
2022-11-19T09:23:48.119Z,10.90
2022-11-19T09:26:16.963Z,10.90
2022-11-19T09:28:45.036Z,11.00
2022-11-19T09:31:13.768Z,11.20
2022-11-19T09:33:44.661Z,11.20
2022-11-19T09:36:12.727Z,11.30
2022-11-19T09:38:41.167Z,11.20
2022-11-19T09:41:32.354Z,11.30
2022-11-19T09:44:05.912Z,11.40
2022-11-19T09:46:42.603Z,11.40
2022-11-19T09:49:33.362Z,11.40
2022-11-19T09:52:06.294Z,11.60
2022-11-19T09:54:34.295Z,11.60
2022-11-19T09:57:04.624Z,11.60
2022-11-19T09:59:41.674Z,11.80
2022-11-19T10:02:19.566Z,11.90
2022-11-19T10:04:48.151Z,11.90
2022-11-19T10:07:35.731Z,11.90
2022-11-19T10:10:07.759Z,12.00
2022-11-19T10:12:50.651Z,12.00
2022-11-19T10:15:18.129Z,12.00
2022-11-19T10:17:52.001Z,12.00
2022-11-19T10:20:25.727Z,12.20
2022-11-19T10:23:10.964Z,12.10
2022-11-19T10:25:39.656Z,12.20
2022-11-19T10:28:13.255Z,12.20
2022-11-19T10:30:42.509Z,12.20
2022-11-19T10:33:12.769Z,12.20
2022-11-19T10:35:45.799Z,12.30
2022-11-19T10:38:32.021Z,12.30
2022-11-19T10:41:02.091Z,12.50
2022-11-19T10:43:37.413Z,12.50
2022-11-19T10:46:06.379Z,12.50
2022-11-19T10:48:36.903Z,12.50
2022-11-19T10:51:10.870Z,12.60
2022-11-19T10:53:39.647Z,12.50
2022-11-19T10:56:12.506Z,12.50
2022-11-19T10:58:43.046Z,12.50
2022-11-19T11:01:23.712Z,12.60
2022-11-19T11:04:10.653Z,12.80
2022-11-19T11:06:58.340Z,12.60
2022-11-19T11:09:32.885Z,12.80
2022-11-19T11:12:29.192Z,12.80
2022-11-19T11:15:00.017Z,12.90
2022-11-19T11:17:28.827Z,12.90
2022-11-19T11:20:02.240Z,12.80
2022-11-19T11:22:29.809Z,12.80
2022-11-19T11:25:00.464Z,12.90
2022-11-19T11:27:35.200Z,13.00
2022-11-19T11:30:06.049Z,13.20
2022-11-19T11:32:33.784Z,13.30
2022-11-19T11:35:06.903Z,13.20
2022-11-19T11:37:36.000Z,13.20
2022-11-19T11:40:06.497Z,13.20
2022-11-19T11:42:34.074Z,13.20
2022-11-19T11:45:01.870Z,13.30
2022-11-19T11:47:36.184Z,13.40
2022-11-19T11:50:22.248Z,13.40
2022-11-19T11:52:51.742Z,13.50
2022-11-19T11:55:25.411Z,13.60
2022-11-19T11:57:52.995Z,13.40
2022-11-19T12:00:34.489Z,13.40
2022-11-19T12:03:15.970Z,13.30
2022-11-19T12:05:56.692Z,13.30
2022-11-19T12:08:36.400Z,13.50
2022-11-19T12:11:07.730Z,13.50
2022-11-19T12:13:48.016Z,13.50
2022-11-19T12:16:34.430Z,13.50
2022-11-19T12:19:05.028Z,13.50
2022-11-19T12:21:41.163Z,13.60
2022-11-19T12:24:11.621Z,13.60
2022-11-19T12:26:39.060Z,13.60
2022-11-19T12:29:11.792Z,13.60
2022-11-19T12:31:55.358Z,13.70
2022-11-19T12:34:33.055Z,13.70
2022-11-19T12:37:18.970Z,13.70
2022-11-19T12:40:01.085Z,13.70
2022-11-19T12:42:28.500Z,13.70
2022-11-19T12:45:16.259Z,13.80
2022-11-19T12:48:13.320Z,13.70
2022-11-19T12:50:52.971Z,13.80
2022-11-19T12:53:39.220Z,13.70
2022-11-19T12:56:21.983Z,13.70
2022-11-19T12:58:55.792Z,13.70
2022-11-19T13:01:29.704Z,13.80
2022-11-19T13:04:15.889Z,13.80
2022-11-19T13:06:50.567Z,13.80
2022-11-19T13:09:26.043Z,13.80
2022-11-19T13:11:56.344Z,13.80
2022-11-19T13:14:59.727Z,13.70
2022-11-19T13:17:31.817Z,13.70
2022-11-19T13:20:04.471Z,13.70
2022-11-19T13:22:44.422Z,13.70
2022-11-19T13:25:24.495Z,13.60
2022-11-19T13:27:53.823Z,13.60
2022-11-19T13:30:28.449Z,13.60
2022-11-19T13:32:58.929Z,13.50
2022-11-19T13:35:49.724Z,13.60
2022-11-19T13:38:26.400Z,13.60
2022-11-19T13:41:10.915Z,13.70
2022-11-19T13:44:17.275Z,13.70
2022-11-19T13:46:50.813Z,13.70
2022-11-19T13:49:30.920Z,13.70
2022-11-19T13:52:03.698Z,13.70
2022-11-19T13:54:35.832Z,13.70
2022-11-19T13:57:04.638Z,13.60
2022-11-19T13:59:32.128Z,13.60
2022-11-19T14:02:04.755Z,13.60
2022-11-19T14:04:51.127Z,13.60
2022-11-19T14:07:37.873Z,13.60
2022-11-19T14:10:11.467Z,13.50
2022-11-19T14:12:45.610Z,13.50
2022-11-19T14:15:54.073Z,13.50
2022-11-19T14:18:49.003Z,13.50
2022-11-19T14:21:43.690Z,13.50
2022-11-19T14:24:44.987Z,13.40
2022-11-19T14:27:21.869Z,13.40
2022-11-19T14:29:49.349Z,13.40
2022-11-19T14:32:16.832Z,13.40
2022-11-19T14:34:47.020Z,13.40
2022-11-19T14:37:21.005Z,13.40
2022-11-19T14:39:55.016Z,13.40
2022-11-19T14:42:22.996Z,13.40
2022-11-19T14:45:05.805Z,13.40
2022-11-19T14:47:37.578Z,13.50
2022-11-19T14:50:07.585Z,13.40
2022-11-19T14:52:40.035Z,13.40
2022-11-19T14:55:16.799Z,13.30
2022-11-19T14:57:45.342Z,13.30
2022-11-19T15:00:16.187Z,13.30
2022-11-19T15:02:48.526Z,13.20
2022-11-19T15:05:20.136Z,13.10
2022-11-19T15:07:54.328Z,13.00
2022-11-19T15:10:27.115Z,13.00
2022-11-19T15:13:13.523Z,13.00
2022-11-19T15:15:42.096Z,12.90
2022-11-19T15:18:15.695Z,12.90
2022-11-19T15:21:02.073Z,12.80
2022-11-19T15:23:58.793Z,12.80
2022-11-19T15:26:32.628Z,12.80
2022-11-19T15:29:03.088Z,12.70
2022-11-19T15:31:30.531Z,12.60
2022-11-19T15:34:15.207Z,12.50
2022-11-19T15:36:47.417Z,12.50
2022-11-19T15:39:27.716Z,12.40
2022-11-19T15:42:02.831Z,12.40
2022-11-19T15:44:41.855Z,12.40
2022-11-19T15:47:32.363Z,12.40
2022-11-19T15:50:00.578Z,12.30
2022-11-19T15:52:29.286Z,12.30
2022-11-19T15:55:32.387Z,12.20
2022-11-19T15:58:03.230Z,12.20
2022-11-19T16:00:30.969Z,12.20
2022-11-19T16:02:58.798Z,12.20
2022-11-19T16:05:28.560Z,12.10
2022-11-19T16:08:00.131Z,12.10
2022-11-19T16:10:34.784Z,12.10
2022-11-19T16:13:22.568Z,12.00
2022-11-19T16:16:09.658Z,12.00
2022-11-19T16:18:50.220Z,12.00
2022-11-19T16:21:23.230Z,12.00
2022-11-19T16:24:09.186Z,12.00
2022-11-19T16:26:39.708Z,12.00
2022-11-19T16:29:07.434Z,12.10
2022-11-19T16:31:34.961Z,12.10
2022-11-19T16:34:02.658Z,12.20
2022-11-19T16:36:32.106Z,12.20
2022-11-19T16:39:00.169Z,12.10
2022-11-19T16:41:46.263Z,12.10
2022-11-19T16:44:19.025Z,12.10
2022-11-19T16:46:46.999Z,12.10
2022-11-19T16:49:32.294Z,12.20
2022-11-19T16:51:59.930Z,12.20
2022-11-19T16:54:46.335Z,12.10
2022-11-19T16:57:15.511Z,12.10
2022-11-19T16:59:46.555Z,12.10
2022-11-19T17:02:15.656Z,12.00
2022-11-19T17:04:50.349Z,12.00
2022-11-19T17:07:22.969Z,12.10
2022-11-19T17:10:06.229Z,12.30
2022-11-19T17:12:34.334Z,12.10
2022-11-19T17:15:02.601Z,12.10
2022-11-19T17:17:39.510Z,12.00
2022-11-19T17:20:26.856Z,12.00
2022-11-19T17:22:54.638Z,12.00
2022-11-19T17:25:22.114Z,12.10
2022-11-19T17:27:53.427Z,12.10
2022-11-19T17:30:25.399Z,12.00
2022-11-19T17:32:54.561Z,12.10
2022-11-19T17:35:38.410Z,12.00
2022-11-19T17:38:14.933Z,11.90
2022-11-19T17:40:47.039Z,12.10
2022-11-19T17:43:33.656Z,12.10
2022-11-19T17:46:01.325Z,12.00
2022-11-19T17:48:29.309Z,11.80
2022-11-19T17:50:56.828Z,11.80
2022-11-19T17:53:24.536Z,11.80
2022-11-19T17:55:54.081Z,11.70
2022-11-19T17:58:21.636Z,11.60
2022-11-19T18:00:49.159Z,11.60
2022-11-19T18:03:17.815Z,11.60
2022-11-19T18:05:47.489Z,11.60
2022-11-19T18:08:15.693Z,11.70
2022-11-19T18:10:44.878Z,11.80
2022-11-19T18:13:14.499Z,11.80
2022-11-19T18:15:42.231Z,11.90
2022-11-19T18:18:09.811Z,12.00
2022-11-19T18:20:37.626Z,12.00
2022-11-19T18:23:05.228Z,12.00
2022-11-19T18:25:32.834Z,12.00
2022-11-19T18:28:00.438Z,12.00
2022-11-19T18:30:27.966Z,12.00
2022-11-19T18:32:55.434Z,12.00
2022-11-19T18:35:23.169Z,12.10
2022-11-19T18:37:50.743Z,12.10
2022-11-19T18:40:18.493Z,12.20
2022-11-19T18:43:04.781Z,12.10
2022-11-19T18:45:32.354Z,12.30
2022-11-19T18:47:59.915Z,12.30
2022-11-19T18:50:30.102Z,12.40
2022-11-19T18:52:58.072Z,12.40
2022-11-19T18:55:25.623Z,12.30
2022-11-19T18:57:53.137Z,12.30
2022-11-19T19:00:20.758Z,12.30
2022-11-19T19:02:48.440Z,12.20
2022-11-19T19:05:16.043Z,12.20
2022-11-19T19:07:43.670Z,12.20
2022-11-19T19:10:11.294Z,12.20
2022-11-19T19:12:38.718Z,12.20
2022-11-19T19:15:06.597Z,12.10
2022-11-19T19:17:34.660Z,12.10
2022-11-19T19:20:02.149Z,12.00
2022-11-19T19:22:30.035Z,12.00
2022-11-19T19:24:58.459Z,12.00
2022-11-19T19:27:26.224Z,12.00
2022-11-19T19:29:53.709Z,12.00
2022-11-19T19:32:21.234Z,12.00
2022-11-19T19:34:48.692Z,11.90
2022-11-19T19:37:16.167Z,12.00
2022-11-19T19:39:43.756Z,11.90
2022-11-19T19:42:11.444Z,12.00
2022-11-19T19:44:38.964Z,12.00
2022-11-19T19:47:06.696Z,12.00
2022-11-19T19:49:38.611Z,12.00
2022-11-19T19:52:06.693Z,11.90
2022-11-19T19:54:34.193Z,11.90
2022-11-19T19:57:01.686Z,11.90
2022-11-19T19:59:29.151Z,11.80
2022-11-19T20:01:56.601Z,11.80
2022-11-19T20:04:24.203Z,11.80
2022-11-19T20:06:52.859Z,11.80
2022-11-19T20:09:20.471Z,11.70
2022-11-19T20:11:48.035Z,11.50
2022-11-19T20:14:15.582Z,11.50
2022-11-19T20:16:43.140Z,11.50
2022-11-19T20:19:14.937Z,11.60
2022-11-19T20:21:42.594Z,11.50
2022-11-19T20:24:13.080Z,11.50
2022-11-19T20:26:41.660Z,11.40
2022-11-19T20:29:10.799Z,11.40
2022-11-19T20:31:38.349Z,11.40
2022-11-19T20:34:05.948Z,11.30
2022-11-19T20:36:34.702Z,11.30
2022-11-19T20:39:02.289Z,11.20
2022-11-19T20:41:48.423Z,11.20
2022-11-19T20:44:25.921Z,11.20
2022-11-19T20:46:53.474Z,11.30
2022-11-19T20:49:22.566Z,11.20
2022-11-19T20:51:50.794Z,11.20
2022-11-19T20:54:19.135Z,11.10
2022-11-19T20:56:46.706Z,11.00
2022-11-19T20:59:14.318Z,11.00
2022-11-19T21:01:42.005Z,10.90
2022-11-19T21:04:10.836Z,10.80
2022-11-19T21:06:38.763Z,10.80
2022-11-19T21:09:07.128Z,10.80
2022-11-19T21:11:34.664Z,10.80
2022-11-19T21:14:02.434Z,10.80
2022-11-19T21:16:30.112Z,10.70
2022-11-19T21:18:58.136Z,10.80
2022-11-19T21:21:26.225Z,10.80
2022-11-19T21:23:54.271Z,10.80
2022-11-19T21:26:22.964Z,10.80
2022-11-19T21:28:54.384Z,10.80
2022-11-19T21:31:23.377Z,10.80
2022-11-19T21:33:50.857Z,10.70
2022-11-19T21:36:18.430Z,10.70
2022-11-19T21:38:46.120Z,10.60
2022-11-19T21:41:13.583Z,10.60
2022-11-19T21:43:41.082Z,10.50
2022-11-19T21:46:08.782Z,10.60
2022-11-19T21:48:37.224Z,10.60
2022-11-19T21:51:08.163Z,10.60
2022-11-19T21:53:35.991Z,10.60
2022-11-19T21:56:04.197Z,10.70
2022-11-19T21:58:31.705Z,10.70
2022-11-19T22:01:00.266Z,10.70
2022-11-19T22:03:28.670Z,10.60
2022-11-19T22:06:03.850Z,10.60
2022-11-19T22:08:32.104Z,10.60
2022-11-19T22:10:59.842Z,10.50
2022-11-19T22:13:27.343Z,10.50
2022-11-19T22:16:01.097Z,10.40
2022-11-19T22:18:28.655Z,10.40
2022-11-19T22:21:02.598Z,10.40
2022-11-19T22:23:30.175Z,10.30
2022-11-19T22:26:03.413Z,10.30
2022-11-19T22:28:30.982Z,10.30
2022-11-19T22:30:58.529Z,10.20
2022-11-19T22:33:36.672Z,10.20
2022-11-19T22:36:09.522Z,10.20
2022-11-19T22:38:38.613Z,10.10
2022-11-19T22:41:07.861Z,10.10
2022-11-19T22:43:37.739Z,10.20
2022-11-19T22:46:05.695Z,10.20
2022-11-19T22:48:33.296Z,10.20
2022-11-19T22:51:05.704Z,10.10
2022-11-19T22:53:36.755Z,10.10
2022-11-19T22:56:06.018Z,10.10
2022-11-19T22:58:33.803Z,10.10
2022-11-19T23:01:01.380Z,10.10
2022-11-19T23:03:29.159Z,10.10
2022-11-19T23:05:57.059Z,10.10
2022-11-19T23:08:24.660Z,10.10
2022-11-19T23:11:02.554Z,10.00
2022-11-19T23:13:33.504Z,9.90
2022-11-19T23:16:04.081Z,9.80
2022-11-19T23:18:33.442Z,9.80
2022-11-19T23:21:11.478Z,9.70
2022-11-19T23:23:38.973Z,9.70
2022-11-19T23:26:07.449Z,9.70
2022-11-19T23:28:35.861Z,9.60
2022-11-19T23:31:04.387Z,9.70
2022-11-19T23:33:31.959Z,9.60
2022-11-19T23:36:03.793Z,9.60
2022-11-19T23:38:31.403Z,9.60
2022-11-19T23:41:02.644Z,9.60
2022-11-19T23:43:30.736Z,9.60
2022-11-19T23:46:09.152Z,9.60
2022-11-19T23:48:37.713Z,9.60
2022-11-19T23:51:06.940Z,9.70
2022-11-19T23:53:34.506Z,9.60
2022-11-19T23:56:02.028Z,9.50
2022-11-19T23:58:29.768Z,9.40
